Time;durP1;ratioP1;P1;durP2;ratioP2;P2;SDS_P1;SDS_P2;PMS_P1;PMS_P2;Temp;Humidity;BMP_temperature;BMP_pressure;BME280_temperature;BME280_humidity;BME280_pressure;Samples;Min_cycle;Max_cycle;Signal;HPM_P1;HPM_P2
2022/06/28 00:01:55;;;;;;;29.00;18.50;;;13.00;99.90;;;;;;4991114;28;20085;-67
2022/06/28 00:04:21;;;;;;;24.65;18.10;;;13.00;99.90;;;;;;4988997;28;20117;-67
2022/06/28 00:06:47;;;;;;;24.00;17.02;;;13.00;99.90;;;;;;4974565;28;20140;-67
2022/06/28 00:09:14;;;;;;;24.27;18.13;;;13.00;99.90;;;;;;4986861;28;20049;-67
2022/06/28 00:11:41;;;;;;;27.60;18.95;;;12.90;99.90;;;;;;4990959;28;20046;-67
2022/06/28 00:16:05;;;;;;;28.05;19.65;;;13.00;99.90;;;;;;4964638;28;20046;-67
2022/06/28 00:16:54;;;;;;;30.25;19.30;;;13.00;99.90;;;;;;4988956;28;20050;-66
2022/06/28 00:19:20;;;;;;;27.67;19.58;;;13.00;99.90;;;;;;4974950;28;20092;-67
2022/06/28 00:21:47;;;;;;;26.38;20.00;;;13.00;99.90;;;;;;4968738;28;20482;-67
2022/06/28 00:24:13;;;;;;;31.58;20.88;;;13.00;99.90;;;;;;4968554;28;20045;-67
2022/06/28 00:26:39;;;;;;;31.45;21.70;;;12.90;99.90;;;;;;4982127;28;20533;-67
2022/06/28 00:29:05;;;;;;;30.05;20.15;;;12.90;99.90;;;;;;4985826;28;20078;-67
2022/06/28 00:31:30;;;;;;;30.10;21.70;;;12.90;99.90;;;;;;4975363;28;20067;-67
2022/06/28 00:33:56;;;;;;;31.23;20.55;;;12.90;99.90;;;;;;4981645;28;20034;-67
2022/06/28 00:36:22;;;;;;;28.63;19.13;;;12.90;99.90;;;;;;4990705;28;20109;-67
2022/06/28 00:38:47;;;;;;;32.72;19.17;;;12.90;99.90;;;;;;4972424;28;20171;-67
2022/06/28 00:41:13;;;;;;;27.30;18.98;;;12.90;99.90;;;;;;4965670;28;20043;-67
2022/06/28 00:43:39;;;;;;;26.20;18.95;;;12.90;99.90;;;;;;4982283;28;20038;-67
2022/06/28 00:46:07;;;;;;;27.83;18.10;;;12.90;99.90;;;;;;4992350;28;20462;-67
2022/06/28 00:48:34;;;;;;;24.60;19.27;;;12.90;99.90;;;;;;5006007;28;20070;-66
2022/06/28 00:51:01;;;;;;;29.63;21.63;;;12.90;99.90;;;;;;4988657;28;20049;-67
2022/06/28 00:53:26;;;;;;;29.00;19.85;;;13.00;99.90;;;;;;5031280;28;20042;-67
2022/06/28 00:55:53;;;;;;;28.00;20.05;;;13.00;99.90;;;;;;4986689;28;20045;-67
2022/06/28 00:58:19;;;;;;;25.20;18.98;;;13.00;99.90;;;;;;4983320;28;20579;-67
2022/06/28 01:00:47;;;;;;;27.70;18.10;;;12.90;99.90;;;;;;4995506;28;20046;-67
2022/06/28 01:03:19;;;;;;;23.00;18.08;;;12.90;99.90;;;;;;4993644;28;20042;-67
2022/06/28 01:05:46;;;;;;;25.77;18.67;;;12.90;99.90;;;;;;5002481;28;20442;-67
2022/06/28 01:08:13;;;;;;;26.08;19.35;;;12.80;99.90;;;;;;5012965;28;20029;-67
2022/06/28 01:10:39;;;;;;;28.33;18.63;;;12.80;99.90;;;;;;4999783;28;20550;-67
2022/06/28 01:13:07;;;;;;;27.48;18.50;;;12.80;99.90;;;;;;4986694;28;20497;-67
2022/06/28 01:15:34;;;;;;;26.90;19.13;;;12.70;99.90;;;;;;4993209;28;20042;-67
2022/06/28 01:18:01;;;;;;;25.42;18.15;;;12.70;99.90;;;;;;4964163;28;20038;-68
2022/06/28 01:20:27;;;;;;;24.17;18.10;;;12.70;99.90;;;;;;4979195;28;20057;-67
2022/06/28 01:22:54;;;;;;;30.38;18.55;;;12.70;99.90;;;;;;4996282;28;20042;-67
2022/06/28 01:25:22;;;;;;;26.30;17.88;;;12.70;99.90;;;;;;4997333;28;20042;-66
2022/06/28 01:27:50;;;;;;;24.27;17.45;;;12.70;99.90;;;;;;4990666;28;20046;-67
2022/06/28 01:30:15;;;;;;;24.52;17.02;;;12.70;99.90;;;;;;4986496;28;20038;-67
2022/06/28 01:32:42;;;;;;;23.63;17.02;;;12.60;99.90;;;;;;4994117;28;20053;-67
2022/06/28 01:35:09;;;;;;;23.05;16.40;;;12.60;99.90;;;;;;5014542;28;20053;-67
2022/06/28 01:37:36;;;;;;;22.38;17.65;;;12.50;99.90;;;;;;5010098;28;20062;-67
2022/06/28 01:40:04;;;;;;;27.20;17.98;;;12.50;99.90;;;;;;5014398;28;20034;-67
2022/06/28 01:42:30;;;;;;;28.75;18.33;;;12.50;99.90;;;;;;4996809;28;20046;-67
2022/06/28 01:44:58;;;;;;;24.23;17.83;;;12.40;99.90;;;;;;5007688;28;20099;-67
2022/06/28 01:47:26;;;;;;;26.40;17.02;;;12.50;99.90;;;;;;4979270;28;20185;-67
2022/06/28 01:57:39;;;;;;;26.90;19.02;;;12.30;99.90;;;;;;5537511;23;20061;-67
2022/06/28 02:00:08;;;;;;;31.30;19.13;;;12.30;99.90;;;;;;4976761;28;20097;-67
2022/06/28 02:02:35;;;;;;;24.95;18.67;;;12.30;99.90;;;;;;4973934;28;20050;-65
2022/06/28 02:05:00;;;;;;;25.83;18.98;;;12.30;99.90;;;;;;4994101;28;20034;-67
2022/06/28 02:07:26;;;;;;;30.80;19.65;;;12.30;99.90;;;;;;4976597;28;20049;-67
2022/06/28 02:15:03;;;;;;;25.90;20.05;;;12.20;99.90;;;;;;5662610;23;19928;-68
2022/06/28 02:17:29;;;;;;;24.98;18.33;;;12.20;99.90;;;;;;4999858;28;20038;-67
2022/06/28 02:19:55;;;;;;;30.42;19.52;;;12.20;99.90;;;;;;4979485;28;20130;-68
2022/06/28 02:22:20;;;;;;;19.52;16.02;;;12.20;99.90;;;;;;4985547;28;20054;-68
2022/06/28 02:24:48;;;;;;;23.55;18.75;;;12.10;99.90;;;;;;4996148;28;20052;-67
2022/06/28 02:27:14;;;;;;;33.30;23.02;;;12.10;99.90;;;;;;4983946;28;20048;-67
2022/06/28 02:40:24;;;;;;;23.20;17.92;;;12.10;99.90;;;;;;5002421;28;20045;-69
2022/06/28 02:42:52;;;;;;;26.35;19.15;;;12.10;99.90;;;;;;5016090;28;20073;-68
2022/06/28 02:47:53;;;;;;;33.42;20.25;;;12.10;99.90;;;;;;6172580;22;20032;-68
2022/06/28 02:50:20;;;;;;;30.00;21.30;;;12.10;99.90;;;;;;4985601;28;20050;-68
2022/06/28 02:52:47;;;;;;;28.58;20.50;;;12.00;99.90;;;;;;4980626;28;20035;-69
2022/06/28 02:57:48;;;;;;;42.05;24.25;;;12.10;99.90;;;;;;5772250;23;20054;-68
2022/06/28 03:00:17;;;;;;;34.92;24.08;;;12.10;99.90;;;;;;4968401;28;20034;-68
2022/06/28 03:07:54;;;;;;;27.83;20.17;;;12.10;99.90;;;;;;5279824;23;20050;-68
2022/06/28 03:10:19;;;;;;;30.52;19.10;;;12.00;99.90;;;;;;4971736;28;20049;-68
2022/06/28 03:12:46;;;;;;;27.85;19.13;;;12.00;99.90;;;;;;4995853;28;20041;-68
2022/06/28 03:15:13;;;;;;;25.67;19.55;;;12.00;99.90;;;;;;4994785;28;20404;-68
2022/06/28 03:17:41;;;;;;;33.00;21.90;;;11.90;99.90;;;;;;4978806;28;20046;-68
2022/06/28 03:48:36;;;;;;;36.45;23.67;;;11.90;99.90;;;;;;5434133;23;20069;-68
2022/06/28 03:51:01;;;;;;;40.58;23.77;;;11.90;99.90;;;;;;5541474;23;20046;-68
2022/06/28 03:53:27;;;;;;;34.75;22.77;;;11.90;99.90;;;;;;5932986;23;20021;-68
2022/06/28 03:55:53;;;;;;;36.83;22.92;;;11.90;99.90;;;;;;4991462;28;20047;-69
2022/06/28 04:17:20;;;;;;;37.42;24.77;;;12.20;99.90;;;;;;6062610;22;20028;-68
2022/06/28 04:30:03;;;;;;;41.08;24.70;;;12.40;99.90;;;;;;5282663;23;20054;-68
2022/06/28 04:32:29;;;;;;;36.55;23.20;;;12.40;99.90;;;;;;4953163;28;20578;-69
2022/06/28 04:34:56;;;;;;;43.47;25.75;;;12.50;99.90;;;;;;4957881;28;20069;-68
2022/06/28 04:37:21;;;;;;;37.85;24.52;;;12.50;99.90;;;;;;5028583;23;20046;-69
2022/06/28 04:39:47;;;;;;;34.47;24.17;;;12.50;99.90;;;;;;4990709;28;20042;-68
2022/06/28 04:42:13;;;;;;;40.58;24.95;;;12.60;99.90;;;;;;4991244;28;20034;-68
2022/06/28 04:44:39;;;;;;;38.55;25.10;;;12.60;99.90;;;;;;4977849;28;20066;-69
2022/06/28 04:47:05;;;;;;;37.67;23.38;;;12.70;99.90;;;;;;4972711;28;20081;-70
2022/06/28 04:49:30;;;;;;;40.03;25.00;;;12.80;99.90;;;;;;4961592;28;20050;-68
2022/06/28 04:51:56;;;;;;;41.08;25.40;;;12.90;99.90;;;;;;4963257;28;20040;-68
2022/06/28 04:54:22;;;;;;;39.25;25.65;;;13.00;99.90;;;;;;4955686;28;20054;-68
2022/06/28 04:56:47;;;;;;;39.40;25.40;;;13.20;99.90;;;;;;4956733;28;20542;-68
2022/06/28 04:59:13;;;;;;;40.92;24.85;;;13.30;99.90;;;;;;4964462;28;20038;-68
2022/06/28 05:01:39;;;;;;;36.78;23.55;;;13.30;99.90;;;;;;4955747;28;20492;-68
2022/06/28 05:09:24;;;;;;;42.08;24.45;;;13.50;99.90;;;;;;5081950;23;20049;-68
2022/06/28 05:11:50;;;;;;;42.45;24.52;;;13.60;99.90;;;;;;4996699;28;20042;-67
2022/06/28 05:14:15;;;;;;;36.70;23.88;;;13.70;99.90;;;;;;4997372;28;20107;-68
2022/06/28 05:16:41;;;;;;;36.90;22.83;;;13.80;99.90;;;;;;5011927;28;20038;-68
2022/06/28 05:19:08;;;;;;;36.60;22.70;;;13.70;99.90;;;;;;4989858;28;20121;-68
2022/06/28 05:26:44;;;;;;;29.73;22.27;;;13.80;99.90;;;;;;5596814;22;20053;-68
2022/06/28 05:29:10;;;;;;;33.75;22.95;;;13.90;99.90;;;;;;4958404;28;20121;-68
2022/06/28 05:31:36;;;;;;;31.98;22.83;;;14.00;99.90;;;;;;4973858;28;20495;-69
2022/06/28 05:36:52;;;;;;;31.17;21.88;;;14.10;99.90;;;;;;5627903;23;20057;-68
2022/06/28 05:39:18;;;;;;;33.42;20.80;;;14.10;99.90;;;;;;5008065;28;20029;-68
2022/06/28 05:41:44;;;;;;;31.27;20.65;;;14.20;99.90;;;;;;4980851;28;20053;-67
2022/06/28 05:44:11;;;;;;;30.30;20.38;;;14.20;99.90;;;;;;4983009;28;20030;-68
2022/06/28 05:46:39;;;;;;;27.92;20.58;;;14.30;99.90;;;;;;5022234;28;20038;-67
2022/06/28 05:49:06;;;;;;;27.17;18.85;;;14.40;99.90;;;;;;4979102;28;20092;-66
2022/06/28 06:06:57;;;;;;;24.50;16.95;;;14.90;99.90;;;;;;4947347;28;20066;-69
2022/06/28 06:17:21;;;;;;;26.98;17.65;;;15.20;99.90;;;;;;5117344;22;20046;-68
2022/06/28 06:19:47;;;;;;;22.80;15.10;;;15.20;99.90;;;;;;4995747;28;20038;-69
2022/06/28 06:37:53;;;;;;;21.60;14.68;;;15.60;99.90;;;;;;6099804;22;20009;-68
2022/06/28 06:40:19;;;;;;;21.15;16.10;;;15.60;99.90;;;;;;4986143;28;20428;-68
2022/06/28 06:42:45;;;;;;;22.05;16.35;;;15.60;99.90;;;;;;4972956;28;20081;-68
2022/06/28 06:45:11;;;;;;;20.20;16.05;;;15.70;99.90;;;;;;4964565;28;20510;-68
2022/06/28 06:47:37;;;;;;;26.42;17.50;;;15.80;99.90;;;;;;4972589;28;20097;-68
2022/06/28 06:50:08;;;;;;;21.42;15.77;;;15.90;99.90;;;;;;4963412;28;20575;-68
2022/06/28 07:14:03;;;;;;;22.20;13.63;;;16.50;99.90;;;;;;5757653;22;20087;-72
2022/06/28 07:16:28;;;;;;;20.23;13.93;;;16.60;99.90;;;;;;4986369;28;20046;-67
2022/06/28 07:18:54;;;;;;;20.10;11.50;;;16.70;99.90;;;;;;4962451;28;20558;-67
2022/06/28 07:21:20;;;;;;;20.35;12.63;;;16.70;99.90;;;;;;4990499;28;20040;-68
2022/06/28 07:23:45;;;;;;;18.08;11.98;;;16.80;99.90;;;;;;4983644;28;20056;-71
2022/06/28 07:26:12;;;;;;;19.02;12.10;;;16.80;99.90;;;;;;4993977;28;20046;-72
2022/06/28 07:38:54;;;;;;;16.90;10.20;;;17.20;99.90;;;;;;4961745;28;20043;-71
2022/06/28 07:56:52;;;;;;;15.30;8.90;;;17.70;99.90;;;;;;5211320;22;20615;-70
2022/06/28 07:59:17;;;;;;;11.93;7.15;;;17.80;99.90;;;;;;5019307;28;20071;-70
2022/06/28 08:01:43;;;;;;;10.52;6.90;;;17.90;99.90;;;;;;5012546;28;20055;-70
2022/06/28 08:04:10;;;;;;;10.82;7.45;;;17.80;99.90;;;;;;5007676;28;20086;-69
2022/06/28 08:06:36;;;;;;;12.20;6.68;;;17.80;99.90;;;;;;4999544;28;20045;-70
2022/06/28 08:09:02;;;;;;;14.60;7.45;;;17.70;99.90;;;;;;5011410;28;20439;-70
2022/06/28 08:16:31;;;;;;;19.40;8.93;;;18.30;99.90;;;;;;4964817;28;20039;-69
2022/06/28 08:18:57;;;;;;;15.27;7.90;;;18.50;99.90;;;;;;4963020;28;20397;-69
2022/06/28 08:21:23;;;;;;;13.95;7.68;;;18.70;99.90;;;;;;4965318;28;20042;-69
2022/06/28 08:23:48;;;;;;;10.40;6.53;;;18.70;99.90;;;;;;4966771;28;20042;-69
2022/06/28 08:26:14;;;;;;;10.60;5.15;;;18.80;99.90;;;;;;4945809;29;20097;-70
2022/06/28 08:28:40;;;;;;;8.98;5.00;;;18.70;99.90;;;;;;4961225;28;20047;-69
2022/06/28 08:34:06;;;;;;;10.57;4.75;;;18.80;99.90;;;;;;5406464;22;20135;-71
2022/06/28 08:36:32;;;;;;;11.23;4.10;;;18.80;99.90;;;;;;4991464;28;20037;-71
2022/06/28 08:38:57;;;;;;;10.57;3.72;;;18.90;99.90;;;;;;5002764;28;20052;-70
2022/06/28 08:41:27;;;;;;;7.97;4.35;;;18.70;99.90;;;;;;5002068;28;20041;-70
2022/06/28 08:43:54;;;;;;;12.07;5.13;;;18.60;99.90;;;;;;4993469;28;20050;-70
2022/06/28 08:46:20;;;;;;;9.55;3.80;;;18.70;99.90;;;;;;4989008;28;20042;-70
2022/06/28 08:48:52;;;;;;;8.52;4.75;;;18.90;99.90;;;;;;4998456;28;20081;-70
2022/06/28 08:51:18;;;;;;;8.38;3.75;;;19.10;99.90;;;;;;4985434;28;20286;-71
2022/06/28 08:53:47;;;;;;;9.20;2.70;;;19.40;99.90;;;;;;5001822;28;20097;-70
2022/06/28 08:56:13;;;;;;;8.60;3.63;;;19.40;99.90;;;;;;4990329;28;20042;-70
2022/06/28 08:58:44;;;;;;;7.93;3.70;;;19.50;99.90;;;;;;5008746;28;20125;-70
2022/06/28 09:19:14;;;;;;;7.50;3.10;;;19.60;99.90;;;;;;5556122;22;20309;-64
2022/06/28 09:21:44;;;;;;;10.13;3.10;;;19.70;99.90;;;;;;5010695;28;20045;-64
2022/06/28 09:24:09;;;;;;;7.90;3.80;;;19.70;99.90;;;;;;4999350;28;20034;-64
2022/06/28 09:26:35;;;;;;;6.30;3.35;;;19.80;99.90;;;;;;5007286;28;20501;-64
2022/06/28 09:29:10;;;;;;;10.07;3.83;;;19.70;99.90;;;;;;5007893;28;20045;-64
2022/06/28 09:31:36;;;;;;;8.02;3.60;;;19.80;99.90;;;;;;5295409;22;20460;-68
2022/06/28 09:34:03;;;;;;;6.93;3.60;;;19.90;99.90;;;;;;4975799;28;20449;-68
2022/06/28 09:36:31;;;;;;;9.88;3.75;;;19.90;99.90;;;;;;4984066;28;20042;-68
2022/06/28 09:41:32;;;;;;;7.07;3.28;;;20.10;99.90;;;;;;5115568;22;20113;-68
2022/06/28 09:51:45;;;;;;;7.90;4.60;;;20.50;99.90;;;;;;6002007;22;20060;-68
2022/06/28 09:54:11;;;;;;;6.97;2.65;;;20.60;99.90;;;;;;4996591;28;20081;-69
2022/06/28 09:56:42;;;;;;;6.60;2.85;;;20.60;99.90;;;;;;4992624;28;20494;-68
2022/06/28 10:04:19;;;;;;;5.00;3.30;;;20.60;99.90;;;;;;5416025;22;20045;-71
2022/06/28 10:06:46;;;;;;;6.93;3.40;;;20.60;99.90;;;;;;4999319;28;20052;-69
2022/06/28 10:22:18;;;;;;;5.30;2.50;;;21.10;99.90;;;;;;5070848;22;20049;-69
2022/06/28 10:24:58;;;;;;;7.25;2.50;;;20.80;99.90;;;;;;4992659;28;20041;-68
2022/06/28 10:27:25;;;;;;;5.90;2.73;;;20.60;99.90;;;;;;5021982;28;20041;-69
2022/06/28 10:35:01;;;;;;;5.85;2.20;;;21.00;99.90;;;;;;5492036;22;20053;-68
2022/06/28 10:37:27;;;;;;;4.68;2.10;;;21.40;99.90;;;;;;5013185;28;20086;-68
2022/06/28 10:40:22;;;;;;;7.55;2.45;;;21.50;99.90;;;;;;4986296;28;20137;-69
2022/06/28 11:01:13;;;;;;;7.80;2.40;;;22.10;99.90;;;;;;5642835;22;20023;-69
2022/06/28 11:04:17;;;;;;;10.55;2.50;;;22.30;99.90;;;;;;5007152;28;20033;-69
2022/06/28 11:06:45;;;;;;;7.00;2.35;;;22.30;98.80;;;;;;4990840;28;20048;-68
2022/06/28 11:09:25;;;;;;;6.90;2.47;;;21.90;99.90;;;;;;5011852;28;20121;-69
2022/06/28 11:12:10;;;;;;;7.00;2.40;;;22.10;99.20;;;;;;4981732;28;20121;-68
2022/06/28 11:15:01;;;;;;;6.10;2.85;;;22.20;97.60;;;;;;4976949;28;20046;-68
2022/06/28 11:17:28;;;;;;;5.97;2.45;;;22.20;97.30;;;;;;4984434;28;20049;-68
2022/06/28 11:20:03;;;;;;;5.80;2.55;;;22.50;99.90;;;;;;4993882;28;20049;-69
2022/06/28 11:22:31;;;;;;;5.60;2.40;;;22.70;99.00;;;;;;4977792;28;20161;-69
2022/06/28 11:40:47;;;;;;;5.38;2.10;;;23.00;98.60;;;;;;5757536;22;20017;-69
2022/06/28 11:43:14;;;;;;;6.82;2.13;;;22.70;97.40;;;;;;4987109;28;20042;-69
2022/06/28 11:45:46;;;;;;;7.13;2.25;;;22.60;97.80;;;;;;4985600;28;20121;-70
2022/06/28 11:48:18;;;;;;;6.82;2.45;;;22.60;98.00;;;;;;5017896;28;20112;-70
2022/06/28 12:03:43;;;;;;;5.25;2.30;;;22.90;98.00;;;;;;5317641;22;20057;-69
2022/06/28 12:06:10;;;;;;;6.78;2.05;;;23.00;94.90;;;;;;4980894;28;20034;-69
2022/06/28 12:16:34;;;;;;;7.00;2.20;;;23.20;96.30;;;;;;5229224;22;20050;-69
2022/06/28 12:19:01;;;;;;;10.98;2.17;;;23.40;96.60;;;;;;4963113;28;20046;-69
2022/06/28 12:21:28;;;;;;;6.90;2.03;;;23.60;96.30;;;;;;4951697;28;20450;-69
2022/06/28 12:23:56;;;;;;;6.82;2.05;;;23.60;95.50;;;;;;4953396;28;20113;-69
2022/06/28 12:28:57;;;;;;;4.80;2.22;;;24.10;95.20;;;;;;5614822;23;20440;-68
2022/06/28 12:31:22;;;;;;;5.63;1.90;;;24.30;95.00;;;;;;5024104;28;20048;-68
2022/06/28 12:33:48;;;;;;;6.35;1.80;;;24.50;95.10;;;;;;4995811;28;20120;-69
2022/06/28 12:36:14;;;;;;;7.22;1.90;;;24.30;94.50;;;;;;4994631;28;20049;-70
2022/06/28 12:38:41;;;;;;;8.30;2.08;;;24.50;94.90;;;;;;4998476;28;20049;-70
2022/06/28 12:41:06;;;;;;;5.43;1.70;;;24.60;94.60;;;;;;5046578;28;20558;-70
2022/06/28 12:48:43;;;;;;;5.32;1.70;;;24.30;92.90;;;;;;5172691;22;20050;-70
2022/06/28 12:51:08;;;;;;;4.15;1.60;;;23.80;93.30;;;;;;4968701;28;20053;-69
2022/06/28 12:53:34;;;;;;;3.90;1.50;;;23.90;93.90;;;;;;4962956;28;20038;-70
2022/06/28 12:56:00;;;;;;;6.78;1.55;;;24.20;93.70;;;;;;4971178;28;20037;-69
2022/06/28 12:58:25;;;;;;;4.50;1.77;;;24.60;94.00;;;;;;4953881;28;20193;-69
2022/06/28 13:00:51;;;;;;;6.63;1.80;;;24.60;92.40;;;;;;4962228;28;20069;-69
2022/06/28 13:03:17;;;;;;;4.63;1.67;;;24.80;92.10;;;;;;4978222;28;20043;-69
2022/06/28 13:05:43;;;;;;;5.63;2.00;;;24.90;92.20;;;;;;4957373;28;20193;-70
2022/06/28 13:08:09;;;;;;;5.43;2.15;;;24.50;92.30;;;;;;4955854;28;20061;-69
2022/06/28 13:15:45;;;;;;;7.35;2.10;;;24.60;91.70;;;;;;6076887;23;20009;-70
2022/06/28 13:18:11;;;;;;;5.28;1.70;;;24.50;91.50;;;;;;5006040;28;20133;-69
2022/06/28 13:20:36;;;;;;;4.68;2.00;;;24.80;92.70;;;;;;4995134;28;20042;-70
2022/06/28 13:23:03;;;;;;;7.15;1.70;;;25.00;92.20;;;;;;5000041;28;20378;-70
2022/06/28 13:28:04;;;;;;;4.68;1.77;;;25.00;91.40;;;;;;6014764;23;21598;-68
2022/06/28 13:30:30;;;;;;;7.22;2.10;;;25.10;91.80;;;;;;5008819;28;20382;-69
2022/06/28 13:32:55;;;;;;;7.10;1.73;;;25.10;92.50;;;;;;5012978;28;20038;-68
2022/06/28 13:35:21;;;;;;;4.88;1.80;;;24.50;91.90;;;;;;5002721;28;20050;-69
2022/06/28 13:55:55;;;;;;;4.50;2.03;;;23.30;92.80;;;;;;5951746;22;20354;-70
2022/06/28 13:58:22;;;;;;;6.25;1.80;;;23.90;95.10;;;;;;4992204;28;20161;-69
2022/06/28 14:11:09;;;;;;;4.32;1.70;;;25.00;93.20;;;;;;5883497;22;20501;-69
2022/06/28 14:16:10;;;;;;;2.47;1.30;;;25.00;91.70;;;;;;5889312;22;20050;-71
2022/06/28 14:18:36;;;;;;;5.22;1.65;;;25.30;92.20;;;;;;4989748;28;20478;-70
2022/06/28 14:21:02;;;;;;;5.60;1.77;;;25.40;88.80;;;;;;4939963;28;20485;-70
2022/06/28 14:23:28;;;;;;;4.05;1.40;;;25.10;89.50;;;;;;4957888;28;20043;-70
2022/06/28 14:49:12;;;;;;;5.13;1.60;;;28.70;74.50;;;;;;5457022;22;20470;-69
2022/06/28 14:51:38;;;;;;;4.55;1.77;;;28.80;72.40;;;;;;4990552;28;20034;-69
2022/06/28 15:01:50;;;;;;;5.35;1.17;;;27.00;66.40;;;;;;6024178;22;20119;-70
2022/06/28 15:09:27;;;;;;;4.03;1.67;;;28.10;67.10;;;;;;5984517;22;20131;-69
2022/06/28 15:11:53;;;;;;;3.55;1.30;;;28.80;68.30;;;;;;4996230;28;20091;-69
2022/06/28 15:14:19;;;;;;;3.60;1.40;;;29.50;64.30;;;;;;4978564;28;20520;-69
2022/06/28 15:19:20;;;;;;;2.97;1.15;;;30.10;61.90;;;;;;5358976;22;20537;-69
2022/06/28 15:47:57;;;;;;;4.95;1.40;;;29.60;57.00;;;;;;5156582;23;20053;-70
2022/06/28 15:50:23;;;;;;;1.92;1.20;;;29.20;55.80;;;;;;4988160;28;20408;-69
2022/06/28 15:52:48;;;;;;;3.85;1.42;;;28.50;56.00;;;;;;4963573;28;20376;-70
2022/06/28 15:55:15;;;;;;;4.65;1.30;;;28.00;56.30;;;;;;4954840;28;20046;-69
2022/06/28 15:57:40;;;;;;;2.03;1.20;;;27.80;59.80;;;;;;4983215;28;20094;-69
2022/06/28 16:02:43;;;;;;;3.75;1.30;;;28.00;59.20;;;;;;5534814;22;20054;-70
2022/06/28 16:05:10;;;;;;;5.47;1.20;;;28.80;58.50;;;;;;4981863;28;20100;-70
2022/06/28 16:07:36;;;;;;;4.50;1.10;;;29.80;56.70;;;;;;4980810;28;20052;-68
2022/06/28 16:12:52;;;;;;;5.72;1.50;;;31.10;54.00;;;;;;5776605;22;20062;-69
2022/06/28 16:15:35;;;;;;;2.72;1.20;;;31.20;52.00;;;;;;4991349;28;20084;-70
2022/06/28 16:18:06;;;;;;;3.92;1.30;;;31.70;50.30;;;;;;4986935;28;20651;-70
2022/06/28 16:20:33;;;;;;;3.25;1.30;;;31.80;51.20;;;;;;4996250;28;20108;-70
2022/06/28 16:23:00;;;;;;;3.67;1.20;;;32.10;50.00;;;;;;5004599;28;20057;-70
2022/06/28 16:25:27;;;;;;;3.70;1.40;;;32.20;48.90;;;;;;4993265;28;20395;-70
2022/06/28 16:27:53;;;;;;;3.03;1.17;;;32.10;48.90;;;;;;4970576;28;20046;-70
2022/06/28 16:30:20;;;;;;;3.60;1.42;;;32.70;49.40;;;;;;5002818;28;20038;-70
2022/06/28 16:35:22;;;;;;;2.60;1.10;;;33.10;48.00;;;;;;5522489;22;20049;-70
2022/06/28 16:37:50;;;;;;;4.50;1.42;;;31.80;46.80;;;;;;4982801;28;20046;-70
2022/06/28 16:40:18;;;;;;;2.22;1.00;;;31.60;48.30;;;;;;5000255;28;20037;-70
2022/06/28 16:47:55;;;;;;;3.40;1.20;;;32.80;47.00;;;;;;5786868;22;20046;-71
2022/06/28 16:50:21;;;;;;;5.07;1.40;;;33.10;46.60;;;;;;4990494;28;20095;-71
2022/06/28 17:01:14;;;;;;;4.22;1.48;;;32.10;46.50;;;;;;5994896;22;20050;-70
2022/06/28 17:03:39;;;;;;;3.35;1.35;;;30.90;47.00;;;;;;4982023;28;20046;-71
2022/06/28 17:11:34;;;;;;;3.25;1.40;;;28.40;49.30;;;;;;5567308;22;20050;-69
2022/06/28 17:13:59;;;;;;;4.05;1.73;;;28.10;48.70;;;;;;4995669;28;20059;-70
2022/06/28 17:19:27;;;;;;;4.78;1.70;;;27.40;51.80;;;;;;5563521;23;20046;-69
2022/06/28 17:21:52;;;;;;;4.47;1.48;;;27.10;51.90;;;;;;5021847;28;20067;-70
2022/06/28 17:24:18;;;;;;;3.10;1.40;;;26.90;53.00;;;;;;5031634;28;20541;-72
2022/06/28 17:31:55;;;;;;;3.75;1.30;;;26.30;60.60;;;;;;5713165;22;20050;-69
2022/06/28 17:34:21;;;;;;;5.18;1.60;;;26.20;61.60;;;;;;4996589;28;20087;-69
2022/06/28 17:39:25;;;;;;;4.63;1.40;;;26.40;59.90;;;;;;5576099;22;20057;-70
2022/06/28 17:47:25;;;;;;;3.30;1.35;;;29.40;59.00;;;;;;5390536;22;20051;-69
2022/06/28 17:52:26;;;;;;;6.30;1.25;;;30.80;56.20;;;;;;5086036;22;20042;-69
2022/06/28 18:00:10;;;;;;;3.17;1.10;;;31.50;53.70;;;;;;5629260;22;20050;-70
2022/06/28 18:02:36;;;;;;;4.13;1.33;;;31.70;53.80;;;;;;5324861;23;20487;-70
2022/06/28 18:05:01;;;;;;;2.28;1.20;;;32.30;54.10;;;;;;5016319;23;20030;-70
2022/06/28 18:07:27;;;;;;;4.65;1.30;;;32.10;54.30;;;;;;5008715;28;20038;-70
2022/06/28 18:09:53;;;;;;;4.75;1.60;;;31.90;52.60;;;;;;4978773;28;20479;-70
2022/06/28 18:14:54;;;;;;;4.68;1.45;;;31.80;52.60;;;;;;6013576;22;20054;-69
2022/06/28 18:17:19;;;;;;;5.55;1.30;;;30.80;52.00;;;;;;4983865;28;20046;-69
2022/06/28 18:22:55;;;;;;;2.67;1.17;;;29.40;54.50;;;;;;5108033;22;20081;-70
2022/06/28 18:25:20;;;;;;;3.20;1.10;;;28.70;59.10;;;;;;4985656;28;20068;-70
2022/06/28 18:27:46;;;;;;;3.67;1.40;;;28.30;63.80;;;;;;4999361;28;20700;-71
2022/06/28 18:30:13;;;;;;;2.38;1.25;;;28.30;65.40;;;;;;4991912;28;20034;-70
2022/06/28 18:32:39;;;;;;;2.45;1.10;;;28.40;63.90;;;;;;4993067;28;20096;-70
2022/06/28 18:35:10;;;;;;;2.55;1.23;;;28.70;64.60;;;;;;4985208;28;20376;-70
2022/06/28 18:37:41;;;;;;;4.40;1.25;;;29.00;64.90;;;;;;5025726;22;20077;-66
2022/06/28 18:40:09;;;;;;;3.58;1.30;;;29.40;63.50;;;;;;5010933;28;20042;-66
2022/06/28 18:42:38;;;;;;;5.15;1.40;;;29.70;63.10;;;;;;4998590;28;20084;-66
2022/06/28 18:45:05;;;;;;;4.72;1.15;;;29.80;63.70;;;;;;5007600;28;20065;-66
2022/06/28 18:47:31;;;;;;;3.95;1.20;;;29.90;63.40;;;;;;5012418;28;20545;-66
2022/06/28 18:49:57;;;;;;;2.88;1.10;;;29.80;63.20;;;;;;4995333;28;20096;-66
2022/06/28 18:52:22;;;;;;;3.03;1.50;;;29.90;64.40;;;;;;4988688;28;20556;-66
2022/06/28 18:54:48;;;;;;;3.72;1.38;;;29.90;63.00;;;;;;5011680;28;20037;-66
2022/06/28 18:57:14;;;;;;;2.50;1.20;;;30.00;63.10;;;;;;4996449;28;20066;-66
2022/06/28 18:59:42;;;;;;;3.20;1.10;;;29.80;63.70;;;;;;4972582;28;20046;-66
2022/06/28 19:02:09;;;;;;;3.45;1.23;;;29.30;64.80;;;;;;5004156;28;20034;-66
2022/06/28 19:04:38;;;;;;;2.47;1.10;;;28.80;67.40;;;;;;5012305;28;20387;-65
2022/06/28 19:07:05;;;;;;;3.35;1.10;;;28.30;70.40;;;;;;4993836;28;20038;-66
2022/06/28 19:09:31;;;;;;;4.47;1.10;;;28.10;73.20;;;;;;4993791;28;20042;-65
2022/06/28 19:11:56;;;;;;;3.97;1.20;;;28.10;71.60;;;;;;5012086;28;20107;-65
2022/06/28 19:14:22;;;;;;;2.60;1.23;;;28.00;71.20;;;;;;5008767;28;20553;-66
2022/06/28 19:16:48;;;;;;;2.80;1.17;;;27.80;70.90;;;;;;4990566;28;20097;-66
2022/06/28 19:19:17;;;;;;;2.92;1.40;;;27.60;71.30;;;;;;4981037;28;20034;-66
2022/06/28 19:21:44;;;;;;;4.45;1.13;;;27.50;71.50;;;;;;4987961;28;20046;-66
2022/06/28 19:24:09;;;;;;;1.35;1.05;;;27.30;72.20;;;;;;5011198;28;20056;-66
2022/06/28 19:26:35;;;;;;;2.45;0.98;;;27.00;73.40;;;;;;4991457;28;20038;-65
2022/06/28 19:29:01;;;;;;;2.45;0.90;;;26.90;74.30;;;;;;5010966;28;20037;-66
2022/06/28 19:31:27;;;;;;;1.92;1.05;;;26.70;75.30;;;;;;5001171;28;20560;-65
2022/06/28 19:33:53;;;;;;;2.05;1.00;;;26.30;76.80;;;;;;4989111;28;20047;-65
2022/06/28 19:36:19;;;;;;;4.10;1.30;;;26.20;78.60;;;;;;5009420;28;20095;-65
2022/06/28 19:38:46;;;;;;;3.05;1.20;;;25.80;80.20;;;;;;5010860;28;20087;-65
2022/06/28 19:41:12;;;;;;;3.72;1.40;;;25.40;82.30;;;;;;4987934;28;20045;-65
2022/06/28 19:43:37;;;;;;;2.60;1.38;;;24.90;85.50;;;;;;5007808;28;20038;-65
2022/06/28 19:46:03;;;;;;;4.15;1.40;;;24.50;87.60;;;;;;5012017;28;20559;-65
2022/06/28 19:48:32;;;;;;;4.15;1.42;;;24.20;90.00;;;;;;4998027;28;20042;-65
2022/06/28 19:50:57;;;;;;;4.97;1.30;;;23.90;90.60;;;;;;4963918;28;20054;-65
2022/06/28 19:53:23;;;;;;;5.20;1.40;;;23.60;91.40;;;;;;5011603;28;20037;-65
2022/06/28 19:55:49;;;;;;;2.90;1.40;;;23.30;91.90;;;;;;5007580;28;20069;-65
2022/06/28 19:58:14;;;;;;;5.68;1.70;;;23.10;92.10;;;;;;4975439;28;20034;-65
2022/06/28 20:00:40;;;;;;;2.78;1.60;;;23.00;92.80;;;;;;5008384;28;20030;-65
2022/06/28 20:03:06;;;;;;;3.10;1.70;;;22.70;93.10;;;;;;5011955;28;20412;-65
2022/06/28 20:05:34;;;;;;;2.88;1.40;;;22.50;93.40;;;;;;4994370;28;20031;-65
2022/06/28 20:08:01;;;;;;;3.10;1.60;;;22.20;93.90;;;;;;5007223;28;20041;-65
2022/06/28 20:10:28;;;;;;;3.70;1.60;;;21.90;94.50;;;;;;5011716;28;20041;-65
2022/06/28 20:12:53;;;;;;;5.65;1.70;;;21.70;95.10;;;;;;5011169;28;20413;-65
2022/06/28 20:15:19;;;;;;;4.22;1.80;;;21.60;95.70;;;;;;4993095;28;20086;-65
2022/06/28 20:17:45;;;;;;;18.63;1.98;;;21.30;96.10;;;;;;5001938;28;20056;-65
2022/06/28 20:20:12;;;;;;;4.03;1.80;;;21.30;96.40;;;;;;5011212;28;20050;-65
2022/06/28 20:22:39;;;;;;;3.88;1.80;;;21.20;96.40;;;;;;4989627;28;20531;-65
2022/06/28 20:25:06;;;;;;;4.35;2.40;;;21.10;96.40;;;;;;5002592;28;20030;-65
2022/06/28 20:27:32;;;;;;;3.40;1.88;;;21.00;96.60;;;;;;5011450;28;20402;-65
2022/06/28 20:29:58;;;;;;;5.03;2.13;;;20.80;96.60;;;;;;5011594;28;20108;-65
2022/06/28 20:32:24;;;;;;;5.30;2.35;;;20.70;96.70;;;;;;4978706;28;20486;-65